Observation data for Abernathy on 01/19/2019      Previous  Date  Next       Current Mesonet Observations  Soil Data  Daily Summary Page  Observations in Plain Language
KARS 190600Z 35023G29KT M00/M02 A3005 RMK A01 T10031015  RH  092%=      5-min Rain = 0
KARS 190605Z 35021G27KT M00/M02 A3005 RMK A01 T10021015  RH  092%=      5-min Rain = 0
KARS 190610Z 35020G28KT M00/M02 A3006 RMK A01 T10011015  RH  092%=      5-min Rain = 0
KARS 190615Z 35023G28KT M00/M01 A3006 RMK A01 T10011014  RH  091%=      5-min Rain = 0
KARS 190620Z 35022KT M00/M01 A3006 RMK A01 T10011014  RH  092%=      5-min Rain = 0
KARS 190625Z 35019G24KT M00/M01 A3006 RMK A01 T10011014  RH  092%=      5-min Rain = 0
KARS 190630Z 35022G28KT 00/01 A3006 RMK A01 T00000-14  RH  091%=      5-min Rain = 0
KARS 190635Z 35022G27KT 00/M02 A3007 RMK A01 T00011015  RH  090%=      5-min Rain = 0
KARS 190640Z 35020G26KT 00/M02 A3007 RMK A01 T00011015  RH  090%=      5-min Rain = 0
KARS 190645Z 34019G24KT 00/M01 A3007 RMK A01 T00021014  RH  090%=      5-min Rain = 0
KARS 190650Z 34018KT 00/M01 A3008 RMK A01 T00021013  RH  090%=      5-min Rain = 0
KARS 190655Z 34018G25KT 00/M01 A3008 RMK A01 T00031012  RH  091%=      5-min Rain = 0
KARS 190700Z 34018G23KT 00/M01 A3008 RMK A01 T00031012  RH  090%=      5-min Rain = 0
KARS 190705Z 34017G22KT 00/M01 A3009 RMK A01 T00031012  RH  090%=      5-min Rain = 0
KARS 190710Z 34019G25KT 00/M01 A3008 RMK A01 T00041012  RH  090%=      5-min Rain = 0
KARS 190715Z 34020G26KT 01/M01 A3008 RMK A01 T00051014  RH  088%=      5-min Rain = 0
KARS 190720Z 35022G27KT 01/M02 A3008 RMK A01 T00061017  RH  085%=      5-min Rain = 0
KARS 190725Z 35022G30KT 01/M02 A3008 RMK A01 T00051019  RH  084%=      5-min Rain = 0
KARS 190730Z 35023G30KT 00/M02 A3008 RMK A01 T00041022  RH  083%=      5-min Rain = 0
KARS 190735Z 35022G27KT 00/M02 A3008 RMK A01 T00021024  RH  083%=      5-min Rain = 0
KARS 190740Z 35019G24KT 00/02 A3008 RMK A01 T00000-24  RH  084%=      5-min Rain = 0
KARS 190745Z 34022G28KT 00/03 A3009 RMK A01 T00-00-25  RH  084%=      5-min Rain = 0
KARS 190750Z 35024G32KT 00/03 A3009 RMK A01 T00000-27  RH  083%=      5-min Rain = 0
KARS 190755Z 35023G29KT M00/M03 A3009 RMK A01 T10011028  RH  083%=      5-min Rain = 0
KARS 190800Z 35019KT M00/M03 A3009 RMK A01 T10031028  RH  083%=      5-min Rain = 0
KARS 190805Z 34018G24KT M00/M03 A3009 RMK A01 T10041028  RH  084%=      5-min Rain = 0
KARS 190810Z 34020G26KT M00/M03 A3009 RMK A01 T10031029  RH  083%=      5-min Rain = 0
KARS 190815Z 35025G33KT M00/M03 A3009 RMK A01 T10031033  RH  081%=      5-min Rain = 0
KARS 190820Z 35022KT M00/M04 A3009 RMK A01 T10041035  RH  080%=      5-min Rain = 0
KARS 190825Z 35022G27KT M01/M04 A3009 RMK A01 T10061035  RH  081%=      5-min Rain = 0
KARS 190830Z 34021G29KT M01/M04 A301 RMK A01 T10071035  RH  081%=      5-min Rain = 0
KARS 190835Z 35024G30KT M01/M04 A301 RMK A01 T10061037  RH  080%=      5-min Rain = 0
KARS 190840Z 35024G31KT M01/M04 A301 RMK A01 T10061037  RH  080%=      5-min Rain = 0
KARS 190845Z 34024G31KT M01/M04 A301 RMK A01 T10061038  RH  080%=      5-min Rain = 0
KARS 190850Z 34024G30KT M01/M04 A3011 RMK A01 T10061039  RH  079%=      5-min Rain = 0
KARS 190855Z 34023G28KT M01/M04 A3011 RMK A01 T10071039  RH  079%=      5-min Rain = 0
KARS 190900Z 34025G33KT M01/M04 A3011 RMK A01 T10071039  RH  079%=      5-min Rain = 0
KARS 190905Z 34024G30KT M01/M04 A3012 RMK A01 T10071040  RH  079%=      5-min Rain = 0
KARS 190910Z 34020KT M01/M04 A3012 RMK A01 T10091039  RH  081%=      5-min Rain = 0
KARS 190915Z 34018G23KT M01/M04 A3012 RMK A01 T10111038  RH  082%=      5-min Rain = 0
KARS 190920Z 33021G29KT M01/M04 A3012 RMK A01 T10101039  RH  081%=      5-min Rain = 0
KARS 190925Z 34022G29KT M01/M04 A3013 RMK A01 T10101041  RH  080%=      5-min Rain = 0
KARS 190930Z 34025G33KT M01/M04 A3013 RMK A01 T10111043  RH  079%=      5-min Rain = 0
KARS 190935Z 34023G30KT M01/M04 A3014 RMK A01 T10121044  RH  080%=      5-min Rain = 0
KARS 190940Z 34021G27KT M01/M04 A3014 RMK A01 T10131044  RH  080%=      5-min Rain = 0
KARS 190945Z 34024G31KT M01/M05 A3014 RMK A01 T10131045  RH  079%=      5-min Rain = 0
KARS 190950Z 34024G31KT M01/M05 A3015 RMK A01 T10131046  RH  078%=      5-min Rain = 0
KARS 190955Z 34025G31KT M01/M05 A3015 RMK A01 T10131046  RH  079%=      5-min Rain = 0
KARS 191000Z 34021G26KT M02/M05 A3015 RMK A01 T10151046  RH  079%=      5-min Rain = 0
KARS 191005Z 34022G28KT M02/M05 A3015 RMK A01 T10151046  RH  080%=      5-min Rain = 0
KARS 191010Z 34021G27KT M02/M05 A3015 RMK A01 T10161046  RH  080%=      5-min Rain = 0
KARS 191015Z 34020G26KT M02/M05 A3016 RMK A01 T10161046  RH  081%=      5-min Rain = 0
KARS 191020Z 34019G25KT M02/M05 A3016 RMK A01 T10171046  RH  081%=      5-min Rain = 0
KARS 191025Z 33020KT M02/M05 A3017 RMK A01 T10171046  RH  081%=      5-min Rain = 0
KARS 191030Z 33020G27KT M02/M05 A3017 RMK A01 T10171045  RH  081%=      5-min Rain = 0
KARS 191035Z 34019G25KT M02/M05 A3017 RMK A01 T10161046  RH  081%=      5-min Rain = 0
KARS 191040Z 34018G23KT M02/M05 A3018 RMK A01 T10171046  RH  081%=      5-min Rain = 0
KARS 191045Z 34017G24KT M02/M05 A3018 RMK A01 T10181046  RH  082%=      5-min Rain = 0
KARS 191050Z 34018KT M02/M05 A3018 RMK A01 T10181046  RH  082%=      5-min Rain = 0
KARS 191055Z 33017G22KT M02/M05 A3018 RMK A01 T10191046  RH  082%=      5-min Rain = 0
KARS 191100Z 33017KT M02/M05 A3018 RMK A01 T10191046  RH  082%=      5-min Rain = 0
KARS 191105Z 33017G22KT M02/M05 A3018 RMK A01 T10201046  RH  083%=      5-min Rain = 0
KARS 191110Z 33018G23KT M02/M05 A3018 RMK A01 T10191046  RH  083%=      5-min Rain = 0
KARS 191115Z 33019KT M02/M05 A3018 RMK A01 T10191046  RH  082%=      5-min Rain = 0
KARS 191120Z 34017G23KT M02/M05 A3019 RMK A01 T10201046  RH  082%=      5-min Rain = 0
KARS 191125Z 34015KT M02/M05 A3018 RMK A01 T10211046  RH  083%=      5-min Rain = 0
KARS 191130Z 34014KT M02/M05 A3018 RMK A01 T10221047  RH  083%=      5-min Rain = 0
KARS 191135Z 34014KT M02/M05 A3019 RMK A01 T10231047  RH  083%=      5-min Rain = 0
KARS 191140Z 33011KT M02/M05 A3019 RMK A01 T10241048  RH  084%=      5-min Rain = 0
KARS 191145Z 33009KT M03/M05 A3019 RMK A01 T10261049  RH  085%=      5-min Rain = 0
KARS 191150Z 33008KT M03/M05 A3019 RMK A01 T10281050  RH  085%=      5-min Rain = 0
KARS 191155Z 33008KT M03/M05 A3019 RMK A01 T10291051  RH  086%=      5-min Rain = 0
KARS 191200Z 33007KT M03/M05 A3019 RMK A01 T10301051  RH  086%=      5-min Rain = 0
KARS 191205Z 33008KT M03/M05 A302 RMK A01 T10291050  RH  086%=      5-min Rain = 0
KARS 191210Z 33008KT M03/M05 A302 RMK A01 T10281050  RH  085%=      5-min Rain = 0
KARS 191215Z 32009KT M03/M05 A302 RMK A01 T10281050  RH  085%=      5-min Rain = 0
KARS 191220Z 33009KT M03/M05 A302 RMK A01 T10281050  RH  085%=      5-min Rain = 0
KARS 191225Z 33009KT M03/M05 A302 RMK A01 T10291050  RH  086%=      5-min Rain = 0
KARS 191230Z 33010KT M03/M05 A302 RMK A01 T10281049  RH  086%=      5-min Rain = 0
KARS 191235Z 33011KT M03/M05 A302 RMK A01 T10271048  RH  085%=      5-min Rain = 0
KARS 191240Z 33011KT M03/M05 A302 RMK A01 T10261048  RH  085%=      5-min Rain = 0
KARS 191245Z 33012KT M03/M05 A3021 RMK A01 T10251048  RH  084%=      5-min Rain = 0
KARS 191250Z 33012KT M03/M05 A3021 RMK A01 T10251048  RH  084%=      5-min Rain = 0
KARS 191255Z 32011KT M03/M05 A3021 RMK A01 T10271049  RH  085%=      5-min Rain = 0
KARS 191300Z 32010KT M03/M05 A3022 RMK A01 T10291050  RH  085%=      5-min Rain = 0
KARS 191305Z 32009KT M03/M05 A3022 RMK A01 T10311051  RH  086%=      5-min Rain = 0
KARS 191310Z 32008KT M03/M05 A3022 RMK A01 T10321052  RH  087%=      5-min Rain = 0
KARS 191315Z 32008KT M03/M05 A3023 RMK A01 T10341053  RH  087%=      5-min Rain = 0
KARS 191320Z 31007KT M04/M05 A3023 RMK A01 T10361054  RH  087%=      5-min Rain = 0
KARS 191325Z 31008KT M04/M06 A3023 RMK A01 T10381055  RH  088%=      5-min Rain = 0
KARS 191330Z 31008KT M04/M06 A3024 RMK A01 T10391056  RH  088%=      5-min Rain = 0
KARS 191335Z 31008KT M04/M06 A3024 RMK A01 T10401057  RH  088%=      5-min Rain = 0
KARS 191340Z 31007KT M04/M06 A3024 RMK A01 T10421059  RH  088%=      5-min Rain = 0
KARS 191345Z 31007KT M05/M06 A3024 RMK A01 T10451062  RH  089%=      5-min Rain = 0
KARS 191350Z 30007KT M05/M06 A3025 RMK A01 T10481064  RH  089%=      5-min Rain = 0
KARS 191355Z 31007KT M05/M06 A3025 RMK A01 T10491064  RH  090%=      5-min Rain = 0
KARS 191400Z 31007KT M05/M07 A3025 RMK A01 T10501065  RH  090%=      5-min Rain = 0
KARS 191405Z 32007KT M05/M06 A3025 RMK A01 T10471060  RH  091%=      5-min Rain = 0
KARS 191410Z 32007KT M04/M06 A3025 RMK A01 T10401056  RH  089%=      5-min Rain = 0
KARS 191415Z 31007KT M04/M06 A3026 RMK A01 T10381055  RH  088%=      5-min Rain = 0
KARS 191420Z 31007KT M04/M05 A3026 RMK A01 T10361054  RH  088%=      5-min Rain = 0
KARS 191425Z 31007KT M03/M05 A3026 RMK A01 T10331052  RH  087%=      5-min Rain = 0
KARS 191430Z 31007KT M03/M05 A3026 RMK A01 T10301050  RH  086%=      5-min Rain = 0
KARS 191435Z 31008KT M03/M05 A3027 RMK A01 T10261048  RH  085%=      5-min Rain = 0
KARS 191440Z 32010KT M02/M05 A3027 RMK A01 T10211045  RH  084%=      5-min Rain = 0
KARS 191445Z 32011KT M02/M04 A3027 RMK A01 T10171043  RH  083%=      5-min Rain = 0
KARS 191450Z 33013KT M01/M04 A3027 RMK A01 T10111038  RH  082%=      5-min Rain = 0
KARS 191455Z 33014KT M00/M04 A3028 RMK A01 T10031036  RH  079%=      5-min Rain = 0
KARS 191500Z 33012KT 00/M03 A3028 RMK A01 T00011034  RH  078%=      5-min Rain = 0
KARS 191505Z 32012KT 00/M03 A3028 RMK A01 T00031033  RH  077%=      5-min Rain = 0
KARS 191510Z 32012KT 00/M03 A3028 RMK A01 T00041032  RH  077%=      5-min Rain = 0
KARS 191515Z 32012KT 01/M03 A3029 RMK A01 T00071030  RH  077%=      5-min Rain = 0
KARS 191520Z 32013KT 01/M03 A3029 RMK A01 T00091029  RH  076%=      5-min Rain = 0
KARS 191525Z 32013KT 01/M03 A3029 RMK A01 T00111028  RH  075%=      5-min Rain = 0
KARS 191530Z 32014KT 01/M03 A3029 RMK A01 T00131028  RH  075%=      5-min Rain = 0
KARS 191535Z 32015KT 02/M03 A3029 RMK A01 T00151028  RH  074%=      5-min Rain = 0
KARS 191540Z 33015KT 02/M03 A3029 RMK A01 T00171027  RH  073%=      5-min Rain = 0
KARS 191545Z 33015KT 02/M03 A3029 RMK A01 T00201025  RH  073%=      5-min Rain = 0
KARS 191550Z 34017G22KT 02/M03 A303 RMK A01 T00221026  RH  072%=      5-min Rain = 0
KARS 191555Z 34018KT 02/M03 A303 RMK A01 T00231025  RH  071%=      5-min Rain = 0
KARS 191600Z 34017G22KT 03/M02 A303 RMK A01 T00251024  RH  071%=      5-min Rain = 0
KARS 191605Z 34017KT 03/M02 A303 RMK A01 T00281024  RH  070%=      5-min Rain = 0
KARS 191610Z 34017G22KT 03/M02 A303 RMK A01 T00291023  RH  069%=      5-min Rain = 0
KARS 191615Z 34016KT 03/M02 A303 RMK A01 T00321021  RH  069%=      5-min Rain = 0
KARS 191620Z 34017G23KT 04/M02 A303 RMK A01 T00351020  RH  068%=      5-min Rain = 0
KARS 191625Z 34016KT 04/M02 A303 RMK A01 T00371018  RH  068%=      5-min Rain = 0
KARS 191630Z 35017KT 04/M02 A303 RMK A01 T00391018  RH  067%=      5-min Rain = 0
KARS 191635Z 34017KT 04/M02 A3031 RMK A01 T00421018  RH  065%=      5-min Rain = 0
KARS 191640Z 34017G24KT 05/M02 A3031 RMK A01 T00461018  RH  064%=      5-min Rain = 0
KARS 191645Z 35016G21KT 05/M02 A3031 RMK A01 T00481018  RH  063%=      5-min Rain = 0
KARS 191650Z 34017KT 05/M02 A3031 RMK A01 T00501020  RH  061%=      5-min Rain = 0
KARS 191655Z 35018G24KT 05/M02 A3031 RMK A01 T00531018  RH  061%=      5-min Rain = 0
KARS 191700Z 35015G20KT 06/M02 A3031 RMK A01 T00571017  RH  060%=      5-min Rain = 0
KARS 191705Z 35017KT 06/M02 A3031 RMK A01 T00561021  RH  058%=      5-min Rain = 0
KARS 191710Z 34017KT 06/M02 A3031 RMK A01 T00571021  RH  058%=      5-min Rain = 0
KARS 191715Z 35016G21KT 06/M02 A3031 RMK A01 T00591022  RH  057%=      5-min Rain = 0
KARS 191720Z 35018KT 06/M02 A3031 RMK A01 T00611023  RH  055%=      5-min Rain = 0
KARS 191725Z 35018KT 06/M03 A3031 RMK A01 T00601026  RH  055%=      5-min Rain = 0
KARS 191730Z 36016KT 06/M02 A3031 RMK A01 T00631023  RH  055%=      5-min Rain = 0
KARS 191735Z 36016G21KT 07/M02 A3032 RMK A01 T00651023  RH  054%=      5-min Rain = 0
KARS 191740Z 00019KT 07/M03 A3031 RMK A01 T00651026  RH  053%=      5-min Rain = 0
KARS 191745Z 00019G24KT 07/M03 A3031 RMK A01 T00671027  RH  052%=      5-min Rain = 0
KARS 191750Z 35019KT 07/M03 A3031 RMK A01 T00671028  RH  051%=      5-min Rain = 0
KARS 191755Z 00018KT 07/M03 A3031 RMK A01 T00681027  RH  051%=      5-min Rain = 0
KARS 191800Z 36017KT 07/M03 A3031 RMK A01 T00701027  RH  050%=      5-min Rain = 0
KARS 191805Z 00020KT 07/M03 A3031 RMK A01 T00731029  RH  049%=      5-min Rain = 0
KARS 191810Z 00020G25KT 07/M03 A3031 RMK A01 T00731029  RH  048%=      5-min Rain = 0
KARS 191815Z 01020G25KT 08/M03 A3031 RMK A01 T00751029  RH  048%=      5-min Rain = 0
KARS 191820Z 36018KT 08/M03 A303 RMK A01 T00761028  RH  048%=      5-min Rain = 0
KARS 191825Z 35017G24KT 08/M03 A303 RMK A01 T00781027  RH  048%=      5-min Rain = 0
KARS 191830Z 35019G25KT 08/M03 A303 RMK A01 T00811027  RH  047%=      5-min Rain = 0
KARS 191835Z 00020G26KT 08/M03 A303 RMK A01 T00821030  RH  045%=      5-min Rain = 0
KARS 191840Z 36021G28KT 08/M03 A303 RMK A01 T00821030  RH  046%=      5-min Rain = 0
KARS 191845Z 36019G26KT 09/M03 A303 RMK A01 T00871027  RH  045%=      5-min Rain = 0
KARS 191850Z 00021KT 09/M03 A3029 RMK A01 T00881030  RH  044%=      5-min Rain = 0
KARS 191855Z 00022G27KT 09/M03 A3029 RMK A01 T00861032  RH  043%=      5-min Rain = 0
KARS 191900Z 00022KT 09/M03 A3029 RMK A01 T00871031  RH  043%=      5-min Rain = 0
KARS 191905Z 36020G26KT 09/M03 A3028 RMK A01 T00901029  RH  043%=      5-min Rain = 0
KARS 191910Z 36018G25KT 09/M03 A3028 RMK A01 T00911030  RH  043%=      5-min Rain = 0
KARS 191915Z 35020KT 09/M03 A3028 RMK A01 T00931030  RH  042%=      5-min Rain = 0
KARS 191920Z 35020KT 09/M03 A3028 RMK A01 T00931030  RH  042%=      5-min Rain = 0
KARS 191925Z 35018G25KT 10/M03 A3028 RMK A01 T00951031  RH  041%=      5-min Rain = 0
KARS 191930Z 36022G28KT 09/M04 A3028 RMK A01 T00931036  RH  040%=      5-min Rain = 0
KARS 191935Z 00020G25KT 09/M03 A3028 RMK A01 T00941034  RH  041%=      5-min Rain = 0
KARS 191940Z 35019G27KT 10/M03 A3028 RMK A01 T00951034  RH  041%=      5-min Rain = 0
KARS 191945Z 35018G23KT 10/M04 A3028 RMK A01 T00971035  RH  040%=      5-min Rain = 0
KARS 191950Z 36021G26KT 10/M04 A3028 RMK A01 T00961038  RH  039%=      5-min Rain = 0
KARS 191955Z 35020G25KT 10/M04 A3028 RMK A01 T00951039  RH  039%=      5-min Rain = 0
KARS 192000Z 35020G25KT 10/M04 A3027 RMK A01 T00951039  RH  039%=      5-min Rain = 0
KARS 192005Z 34019G24KT 10/M04 A3027 RMK A01 T00971038  RH  038%=      5-min Rain = 0
KARS 192010Z 35018G24KT 10/M04 A3027 RMK A01 T00971037  RH  039%=      5-min Rain = 0
KARS 192015Z 35017G22KT 10/M04 A3027 RMK A01 T00981037  RH  039%=      5-min Rain = 0
KARS 192020Z 00019KT 10/M04 A3027 RMK A01 T01011036  RH  038%=      5-min Rain = 0
KARS 192025Z 35019KT 10/M04 A3027 RMK A01 T00981039  RH  038%=      5-min Rain = 0
KARS 192030Z 00018KT 10/M04 A3027 RMK A01 T00971036  RH  039%=      5-min Rain = 0
KARS 192035Z 35017KT 10/M04 A3027 RMK A01 T00991035  RH  039%=      5-min Rain = 0
KARS 192040Z 00018KT 10/M04 A3026 RMK A01 T00981036  RH  039%=      5-min Rain = 0
KARS 192045Z 36017KT 10/M04 A3027 RMK A01 T00961038  RH  039%=      5-min Rain = 0
KARS 192050Z 36017G22KT 10/M04 A3026 RMK A01 T00991036  RH  039%=      5-min Rain = 0
KARS 192055Z 35014G19KT 10/M04 A3026 RMK A01 T01011036  RH  038%=      5-min Rain = 0
KARS 192100Z 34016G21KT 10/M04 A3026 RMK A01 T01021037  RH  038%=      5-min Rain = 0
KARS 192105Z 35015G22KT 10/M04 A3026 RMK A01 T01001037  RH  038%=      5-min Rain = 0
KARS 192110Z 34018G24KT 10/M04 A3026 RMK A01 T01011043  RH  036%=      5-min Rain = 0
KARS 192115Z 35017G22KT 10/M04 A3026 RMK A01 T01001044  RH  036%=      5-min Rain = 0
KARS 192120Z 35016G21KT 10/M04 A3026 RMK A01 T01001042  RH  037%=      5-min Rain = 0
KARS 192125Z 34016G21KT 10/M04 A3026 RMK A01 T01011043  RH  036%=      5-min Rain = 0
KARS 192130Z 35016KT 10/M04 A3026 RMK A01 T01011043  RH  036%=      5-min Rain = 0
KARS 192135Z 34015G20KT 10/M04 A3027 RMK A01 T01001041  RH  037%=      5-min Rain = 0
KARS 192140Z 35016G21KT 10/M04 A3027 RMK A01 T00991042  RH  037%=      5-min Rain = 0
KARS 192145Z 34014KT 10/M04 A3027 RMK A01 T00991043  RH  037%=      5-min Rain = 0
KARS 192150Z 34014G19KT 10/M04 A3027 RMK A01 T01011040  RH  037%=      5-min Rain = 0
KARS 192155Z 34013KT 10/M04 A3027 RMK A01 T01001041  RH  037%=      5-min Rain = 0
KARS 192200Z 34014KT 10/M04 A3027 RMK A01 T00991041  RH  037%=      5-min Rain = 0
KARS 192205Z 34015G20KT 10/M04 A3027 RMK A01 T00981039  RH  038%=      5-min Rain = 0
KARS 192210Z 34014G19KT 10/M04 A3026 RMK A01 T00981039  RH  038%=      5-min Rain = 0
KARS 192215Z 34014KT 10/M04 A3026 RMK A01 T00971040  RH  038%=      5-min Rain = 0
KARS 192220Z 35013KT 10/M04 A3026 RMK A01 T00981038  RH  038%=      5-min Rain = 0
KARS 192225Z 34012G18KT 10/M04 A3026 RMK A01 T00981038  RH  038%=      5-min Rain = 0
KARS 192230Z 35012KT 10/M04 A3026 RMK A01 T00991038  RH  038%=      5-min Rain = 0
KARS 192235Z 34013KT 10/M04 A3026 RMK A01 T00971038  RH  039%=      5-min Rain = 0
KARS 192240Z 34013KT 10/M04 A3026 RMK A01 T00961037  RH  039%=      5-min Rain = 0
KARS 192245Z 34010KT 10/M04 A3026 RMK A01 T00961037  RH  039%=      5-min Rain = 0
KARS 192250Z 35012KT 10/M04 A3026 RMK A01 T00951037  RH  040%=      5-min Rain = 0
KARS 192255Z 35010G15KT 09/M04 A3026 RMK A01 T00941035  RH  040%=      5-min Rain = 0
KARS 192300Z 36010KT 09/M03 A3026 RMK A01 T00941034  RH  041%=      5-min Rain = 0
KARS 192305Z 36011KT 09/M03 A3026 RMK A01 T00931034  RH  041%=      5-min Rain = 0
KARS 192310Z 36011KT 09/M04 A3026 RMK A01 T00911036  RH  041%=      5-min Rain = 0
KARS 192315Z 00009KT 09/M03 A3026 RMK A01 T00901034  RH  042%=      5-min Rain = 0
KARS 192320Z 00009KT 09/M03 A3026 RMK A01 T00881034  RH  042%=      5-min Rain = 0
KARS 192325Z 01009KT 09/M04 A3026 RMK A01 T00871035  RH  042%=      5-min Rain = 0
KARS 192330Z 01008KT 09/M03 A3026 RMK A01 T00861033  RH  043%=      5-min Rain = 0
KARS 192335Z 01009KT 08/M03 A3026 RMK A01 T00831032  RH  044%=      5-min Rain = 0
KARS 192340Z 01007KT 08/M03 A3026 RMK A01 T00791032  RH  046%=      5-min Rain = 0
KARS 192345Z 01007KT 08/M03 A3026 RMK A01 T00771033  RH  046%=      5-min Rain = 0
KARS 192350Z 01007KT 07/M03 A3027 RMK A01 T00711034  RH  048%=      5-min Rain = 0
KARS 192355Z 01006KT 07/M04 A3027 RMK A01 T00651035  RH  049%=      5-min Rain = 0
KARS 200000Z 01007KT 06/M04 A3027 RMK A01 T00591037  RH  050%=      5-min Rain = 0
KARS 200005Z 01006KT 05/M04 A3027 RMK A01 T00531039  RH  052%=      5-min Rain = 0
KARS 200010Z 02006KT 05/M04 A3027 RMK A01 T00511039  RH  052%=      5-min Rain = 0
KARS 200015Z 02005KT 05/M04 A3027 RMK A01 T00511041  RH  052%=      5-min Rain = 0
KARS 200020Z 03003KT 05/M04 A3027 RMK A01 T00481041  RH  052%=      5-min Rain = 0
KARS 200025Z 03003KT 05/M04 A3027 RMK A01 T00461040  RH  054%=      5-min Rain = 0
KARS 200030Z 03005KT 05/M04 A3027 RMK A01 T00491040  RH  053%=      5-min Rain = 0
KARS 200035Z 03006KT 04/M05 A3027 RMK A01 T00441045  RH  052%=      5-min Rain = 0
KARS 200040Z 03007KT 04/M05 A3027 RMK A01 T00371046  RH  055%=      5-min Rain = 0
KARS 200045Z 03005KT 04/M05 A3027 RMK A01 T00351048  RH  055%=      5-min Rain = 0
KARS 200050Z 04005KT 04/M05 A3027 RMK A01 T00361048  RH  054%=      5-min Rain = 0
KARS 200055Z 05005KT 03/M05 A3027 RMK A01 T00291049  RH  056%=      5-min Rain = 0
KARS 200100Z 05005KT 03/M05 A3027 RMK A01 T00251052  RH  057%=      5-min Rain = 0
KARS 200105Z 06005KT 02/M05 A3027 RMK A01 T00241049  RH  059%=      5-min Rain = 0
KARS 200110Z 06005KT 02/M05 A3027 RMK A01 T00241047  RH  060%=      5-min Rain = 0
KARS 200115Z 05006KT 03/M05 A3027 RMK A01 T00271047  RH  058%=      5-min Rain = 0
KARS 200120Z 05007KT 03/M05 A3027 RMK A01 T00291048  RH  057%=      5-min Rain = 0
KARS 200125Z 05007KT 03/M05 A3027 RMK A01 T00251051  RH  057%=      5-min Rain = 0
KARS 200130Z 06006KT 02/M06 A3027 RMK A01 T00171055  RH  059%=      5-min Rain = 0
KARS 200135Z 07005KT 01/M05 A3027 RMK A01 T00141053  RH  061%=      5-min Rain = 0
KARS 200140Z 06006KT 02/M05 A3026 RMK A01 T00181050  RH  061%=      5-min Rain = 0
KARS 200145Z 06006KT 02/M05 A3026 RMK A01 T00161050  RH  062%=      5-min Rain = 0
KARS 200150Z 06006KT 01/M05 A3025 RMK A01 T00121052  RH  063%=      5-min Rain = 0
KARS 200155Z 07006KT 01/M05 A3025 RMK A01 T00091052  RH  064%=      5-min Rain = 0
KARS 200200Z 10005KT 01/M05 A3025 RMK A01 T00091052  RH  064%=      5-min Rain = 0
KARS 200205Z 10006KT 01/M05 A3025 RMK A01 T00081053  RH  064%=      5-min Rain = 0
KARS 200210Z 11004KT 00/M06 A3026 RMK A01 T00031055  RH  065%=      5-min Rain = 0
KARS 200215Z 09005KT M00/M06 A3026 RMK A01 T10031056  RH  068%=      5-min Rain = 0
KARS 200220Z 10005KT 00/05 A3026 RMK A01 T00-00-54  RH  068%=      5-min Rain = 0
KARS 200225Z 10004KT 00/06 A3027 RMK A01 T00000-55  RH  066%=      5-min Rain = 0
KARS 200230Z 10003KT M00/M06 A3028 RMK A01 T10011055  RH  067%=      5-min Rain = 0
KARS 200235Z 11003KT 00/M05 A3028 RMK A01 T00011054  RH  067%=      5-min Rain = 0
KARS 200240Z 12003KT 00/M05 A3028 RMK A01 T00021054  RH  066%=      5-min Rain = 0
KARS 200245Z 09002KT 00/M05 A3028 RMK A01 T00011053  RH  067%=      5-min Rain = 0
KARS 200250Z 07002KT 00/M06 A3029 RMK A01 T00011056  RH  066%=      5-min Rain = 0
KARS 200255Z 08002KT M01/M06 A3028 RMK A01 T10061057  RH  068%=      5-min Rain = 0
KARS 200300Z 09002KT M00/M05 A3028 RMK A01 T10031054  RH  069%=      5-min Rain = 0
KARS 200305Z 11004KT 00/05 A3028 RMK A01 T00-00-53  RH  068%=      5-min Rain = 0
KARS 200310Z 11005KT M00/M05 A3027 RMK A01 T10011054  RH  068%=      5-min Rain = 0
KARS 200315Z 11004KT M00/M06 A3027 RMK A01 T10021055  RH  067%=      5-min Rain = 0
KARS 200320Z 10002KT M00/M06 A3028 RMK A01 T10041055  RH  069%=      5-min Rain = 0
KARS 200325Z 10003KT M00/M05 A3028 RMK A01 T10011053  RH  068%=      5-min Rain = 0
KARS 200330Z 12006KT M00/M06 A3027 RMK A01 T10011055  RH  067%=      5-min Rain = 0
KARS 200335Z 13006KT M01/M06 A3027 RMK A01 T10091057  RH  070%=      5-min Rain = 0
KARS 200340Z 12006KT M01/M06 A3026 RMK A01 T10121057  RH  071%=      5-min Rain = 0
KARS 200345Z 12005KT M01/M06 A3027 RMK A01 T10091057  RH  070%=      5-min Rain = 0
KARS 200350Z 13006KT M01/M06 A3027 RMK A01 T10111058  RH  070%=      5-min Rain = 0
KARS 200355Z 13005KT M02/M06 A3027 RMK A01 T10171059  RH  073%=      5-min Rain = 0
KARS 200400Z 14005KT M02/M06 A3027 RMK A01 T10181058  RH  074%=      5-min Rain = 0
KARS 200405Z 13005KT M01/M06 A3027 RMK A01 T10111055  RH  072%=      5-min Rain = 0
KARS 200410Z 12006KT M01/M06 A3027 RMK A01 T10081055  RH  071%=      5-min Rain = 0
KARS 200415Z 13007KT M01/M06 A3027 RMK A01 T10061056  RH  069%=      5-min Rain = 0
KARS 200420Z 13007KT M01/M06 A3027 RMK A01 T10091056  RH  071%=      5-min Rain = 0
KARS 200425Z 11006KT M01/M06 A3027 RMK A01 T10071055  RH  070%=      5-min Rain = 0
KARS 200430Z 12007KT M01/M06 A3027 RMK A01 T10081056  RH  070%=      5-min Rain = 0
KARS 200435Z 13007KT M01/M06 A3027 RMK A01 T10101056  RH  071%=      5-min Rain = 0
KARS 200440Z 13007KT M01/M05 A3027 RMK A01 T10061054  RH  070%=      5-min Rain = 0
KARS 200445Z 13007KT M00/M05 A3027 RMK A01 T10041054  RH  069%=      5-min Rain = 0
KARS 200450Z 13007KT M01/M06 A3027 RMK A01 T10061055  RH  070%=      5-min Rain = 0
KARS 200455Z 13006KT M01/M06 A3027 RMK A01 T10091057  RH  070%=      5-min Rain = 0
KARS 200500Z 13006KT M01/M06 A3027 RMK A01 T10121058  RH  071%=      5-min Rain = 0
KARS 200505Z 14006KT M01/M06 A3028 RMK A01 T10141058  RH  072%=      5-min Rain = 0
KARS 200510Z 13006KT M01/M06 A3028 RMK A01 T10141057  RH  072%=      5-min Rain = 0
KARS 200515Z 13006KT M01/M06 A3028 RMK A01 T10131058  RH  072%=      5-min Rain = 0
KARS 200520Z 13007KT M02/M06 A3028 RMK A01 T10151058  RH  073%=      5-min Rain = 0
KARS 200525Z 14007KT M02/M06 A3028 RMK A01 T10171058  RH  074%=      5-min Rain = 0
KARS 200530Z 14007KT M02/M06 A3028 RMK A01 T10181058  RH  074%=      5-min Rain = 0
KARS 200535Z 14006KT M02/M06 A3028 RMK A01 T10171058  RH  074%=      5-min Rain = 0
KARS 200540Z 16007KT M02/M06 A3028 RMK A01 T10221061  RH  075%=      5-min Rain = 0
KARS 200545Z 15006KT M02/M06 A3028 RMK A01 T10221057  RH  077%=      5-min Rain = 0
KARS 200550Z 16006KT M02/M06 A3028 RMK A01 T10221058  RH  076%=      5-min Rain = 0
KARS 200555Z 16005KT M03/M06 A3029 RMK A01 T10261061  RH  077%=      5-min Rain = 0

Page generated in 0.0102 seconds.